Time;durP1;ratioP1;P1;durP2;ratioP2;P2;SDS_P1;SDS_P2;PMS_P1;PMS_P2;Temp;Humidity;BMP_temperature;BMP_pressure;BME280_temperature;BME280_humidity;BME280_pressure;Samples;Min_cycle;Max_cycle;Signal;HPM_P1;HPM_P2
2021/10/17 00:00:01;;;;;;;6.07;3.50;;;;;;;;;;5025057;28;20199;-51
2021/10/17 00:02:27;;;;;;;4.70;3.65;;;;;;;;;;5035237;28;20207;-51
2021/10/17 00:04:53;;;;;;;4.20;3.20;;;;;;;;;;5036625;28;20466;-51
2021/10/17 00:07:19;;;;;;;3.72;3.10;;;;;;;;;;5037166;28;20187;-50
2021/10/17 00:09:45;;;;;;;5.28;3.25;;;;;;;;;;5024298;28;20176;-52
2021/10/17 00:12:12;;;;;;;4.30;3.28;;;;;;;;;;5018237;28;20461;-51
2021/10/17 00:14:38;;;;;;;3.95;3.42;;;;;;;;;;5017985;28;20450;-50
2021/10/17 00:17:05;;;;;;;4.88;2.65;;;;;;;;;;5018128;28;20203;-51
2021/10/17 00:19:31;;;;;;;3.90;3.50;;;;;;;;;;5022228;28;20231;-52
2021/10/17 00:21:57;;;;;;;22.42;3.72;;;;;;;;;;5017701;28;20177;-51
2021/10/17 00:24:23;;;;;;;3.35;2.95;;;;;;;;;;5017681;28;20663;-51
2021/10/17 00:26:49;;;;;;;4.25;3.40;;;;;;;;;;5023994;28;20204;-51
2021/10/17 00:29:15;;;;;;;3.38;2.90;;;;;;;;;;5023695;28;20257;-51
2021/10/17 00:31:41;;;;;;;5.13;3.10;;;;;;;;;;5033093;28;20208;-51
2021/10/17 00:34:08;;;;;;;3.53;2.92;;;;;;;;;;5034962;28;20908;-50
2021/10/17 00:36:34;;;;;;;4.60;3.35;;;;;;;;;;5031564;28;20180;-53
2021/10/17 00:39:00;;;;;;;4.65;3.20;;;;;;;;;;5022826;28;20184;-51
2021/10/17 00:41:30;;;;;;;2.85;2.60;;;;;;;;;;5030926;28;20206;-51
2021/10/17 00:43:56;;;;;;;3.72;3.13;;;;;;;;;;5017311;28;20176;-51
2021/10/17 00:46:22;;;;;;;3.33;3.03;;;;;;;;;;5032698;28;20179;-51
2021/10/17 00:48:48;;;;;;;3.55;2.88;;;;;;;;;;5019966;28;20172;-51
2021/10/17 00:51:15;;;;;;;3.63;3.17;;;;;;;;;;5037038;28;20290;-51
2021/10/17 00:53:41;;;;;;;3.10;2.60;;;;;;;;;;5035646;28;20218;-51
2021/10/17 00:56:08;;;;;;;5.93;3.00;;;;;;;;;;5027385;28;20257;-51
2021/10/17 00:58:34;;;;;;;5.13;3.10;;;;;;;;;;5018961;28;20220;-51
2021/10/17 01:01:00;;;;;;;3.22;2.85;;;;;;;;;;5036589;28;20215;-51
2021/10/17 01:03:27;;;;;;;3.45;3.15;;;;;;;;;;5036370;28;20172;-51
2021/10/17 01:05:53;;;;;;;3.75;3.03;;;;;;;;;;5035982;28;20180;-50
2021/10/17 01:08:19;;;;;;;3.55;2.88;;;;;;;;;;5027584;28;20229;-51
2021/10/17 01:10:46;;;;;;;3.90;2.70;;;;;;;;;;5028506;28;20184;-52
2021/10/17 01:13:22;;;;;;;3.03;2.55;;;;;;;;;;5035967;28;20552;-51
2021/10/17 01:15:55;;;;;;;3.78;2.90;;;;;;;;;;5035837;28;20183;-51
2021/10/17 01:18:22;;;;;;;3.08;2.60;;;;;;;;;;5025564;28;20442;-51
2021/10/17 01:20:48;;;;;;;3.67;2.85;;;;;;;;;;5025625;28;20214;-50
2021/10/17 01:23:16;;;;;;;3.00;2.70;;;;;;;;;;5031577;28;20176;-51
2021/10/17 01:25:42;;;;;;;3.28;2.78;;;;;;;;;;5036050;28;20237;-52
2021/10/17 01:28:08;;;;;;;3.08;2.70;;;;;;;;;;5035963;28;20257;-51
2021/10/17 01:30:34;;;;;;;3.03;2.47;;;;;;;;;;5030285;28;20600;-51
2021/10/17 01:33:00;;;;;;;2.90;2.60;;;;;;;;;;5027272;28;20248;-51
2021/10/17 01:35:26;;;;;;;3.80;2.72;;;;;;;;;;5037389;28;20172;-51
2021/10/17 01:37:52;;;;;;;2.58;2.30;;;;;;;;;;5038287;28;20214;-51
2021/10/17 01:40:19;;;;;;;3.08;2.72;;;;;;;;;;5035146;28;20199;-51
2021/10/17 01:42:45;;;;;;;3.03;2.25;;;;;;;;;;5017287;28;20215;-51
2021/10/17 01:45:11;;;;;;;2.75;2.35;;;;;;;;;;5027883;28;20207;-51
2021/10/17 01:47:37;;;;;;;2.95;2.53;;;;;;;;;;5028164;28;20556;-51
2021/10/17 01:50:04;;;;;;;2.38;2.10;;;;;;;;;;5017673;28;20230;-51
2021/10/17 01:52:31;;;;;;;2.53;2.33;;;;;;;;;;5016750;28;20189;-51
2021/10/17 01:54:57;;;;;;;4.28;2.70;;;;;;;;;;5021806;28;20274;-51
2021/10/17 01:57:23;;;;;;;2.63;2.40;;;;;;;;;;5030107;28;20256;-52
2021/10/17 01:59:49;;;;;;;3.00;2.60;;;;;;;;;;5023500;28;20200;-51
2021/10/17 02:02:15;;;;;;;2.85;2.50;;;;;;;;;;5016223;28;20223;-51
2021/10/17 02:04:41;;;;;;;4.22;2.67;;;;;;;;;;5026565;28;20202;-50
2021/10/17 02:07:07;;;;;;;2.65;2.40;;;;;;;;;;5035331;28;20533;-50
2021/10/17 02:09:33;;;;;;;3.67;2.88;;;;;;;;;;5021610;28;20176;-51
2021/10/17 02:11:59;;;;;;;3.65;2.75;;;;;;;;;;5033684;28;20444;-51
2021/10/17 02:14:25;;;;;;;2.90;2.40;;;;;;;;;;5035241;28;20168;-50
2021/10/17 02:16:51;;;;;;;2.45;2.22;;;;;;;;;;5017858;28;20185;-50
2021/10/17 02:19:17;;;;;;;2.58;2.38;;;;;;;;;;5016585;28;20598;-51
2021/10/17 02:21:43;;;;;;;2.75;2.42;;;;;;;;;;5033051;28;20175;-51
2021/10/17 02:24:11;;;;;;;2.65;2.30;;;;;;;;;;5027597;28;20591;-50
2021/10/17 02:26:38;;;;;;;2.78;2.38;;;;;;;;;;5015612;28;20204;-51
2021/10/17 02:29:04;;;;;;;2.75;2.50;;;;;;;;;;5018412;28;20200;-51
2021/10/17 02:31:30;;;;;;;2.70;2.38;;;;;;;;;;5031711;28;20555;-52
2021/10/17 02:33:56;;;;;;;2.53;2.30;;;;;;;;;;5034761;28;20180;-52
2021/10/17 02:36:22;;;;;;;2.50;2.30;;;;;;;;;;5034681;28;20207;-51
2021/10/17 02:38:48;;;;;;;3.22;2.15;;;;;;;;;;5034406;28;20559;-51
2021/10/17 02:41:14;;;;;;;2.35;2.13;;;;;;;;;;5021265;28;20215;-51
2021/10/17 02:43:40;;;;;;;2.33;2.13;;;;;;;;;;5034857;28;20183;-51
2021/10/17 02:46:06;;;;;;;2.65;1.95;;;;;;;;;;5024212;28;20544;-51
2021/10/17 02:48:32;;;;;;;2.58;2.22;;;;;;;;;;5021430;28;20189;-50
2021/10/17 02:50:59;;;;;;;2.22;2.03;;;;;;;;;;5028270;28;20237;-51
2021/10/17 02:53:25;;;;;;;2.40;2.20;;;;;;;;;;5017614;28;20275;-50
2021/10/17 02:55:51;;;;;;;4.93;2.53;;;;;;;;;;5034277;28;20504;-50
2021/10/17 02:58:17;;;;;;;3.00;2.30;;;;;;;;;;5030287;28;20192;-50
2021/10/17 03:00:43;;;;;;;2.38;2.17;;;;;;;;;;5023152;28;20208;-51
2021/10/17 03:03:09;;;;;;;2.70;2.50;;;;;;;;;;5031604;28;20552;-50
2021/10/17 03:05:35;;;;;;;2.40;2.00;;;;;;;;;;5016025;28;20229;-52
2021/10/17 03:08:01;;;;;;;2.45;2.00;;;;;;;;;;5016372;28;20176;-50
2021/10/17 03:10:27;;;;;;;2.63;2.05;;;;;;;;;;5025929;28;20355;-51
2021/10/17 03:12:53;;;;;;;2.35;2.15;;;;;;;;;;5028541;28;20286;-51
2021/10/17 03:15:19;;;;;;;2.90;2.30;;;;;;;;;;5031064;28;20191;-51
2021/10/17 03:17:45;;;;;;;2.88;2.13;;;;;;;;;;5034247;28;20179;-51
2021/10/17 03:20:12;;;;;;;2.38;2.17;;;;;;;;;;5028192;28;20199;-51
2021/10/17 03:22:38;;;;;;;2.85;2.25;;;;;;;;;;5015131;28;20457;-51
2021/10/17 03:25:04;;;;;;;2.53;2.33;;;;;;;;;;5027809;28;20185;-51
2021/10/17 03:27:30;;;;;;;2.20;2.00;;;;;;;;;;5015195;28;20188;-51
2021/10/17 03:29:57;;;;;;;2.40;1.92;;;;;;;;;;5020582;28;20184;-51
2021/10/17 03:32:23;;;;;;;4.00;2.20;;;;;;;;;;5027450;28;20614;-50
2021/10/17 03:34:49;;;;;;;2.78;2.03;;;;;;;;;;5033060;28;20279;-51
2021/10/17 03:37:15;;;;;;;2.22;2.03;;;;;;;;;;5014477;28;20196;-51
2021/10/17 03:39:41;;;;;;;2.55;1.90;;;;;;;;;;5016054;28;20189;-51
2021/10/17 03:42:07;;;;;;;2.35;2.03;;;;;;;;;;5021093;28;20267;-50
2021/10/17 03:44:33;;;;;;;2.47;2.10;;;;;;;;;;5014345;28;20263;-50
2021/10/17 03:46:59;;;;;;;2.05;1.70;;;;;;;;;;5016131;28;20267;-50
2021/10/17 03:49:25;;;;;;;2.70;2.20;;;;;;;;;;5015927;28;20564;-51
2021/10/17 03:51:51;;;;;;;2.90;1.90;;;;;;;;;;5020072;28;20263;-51
2021/10/17 03:54:17;;;;;;;2.30;2.03;;;;;;;;;;5024983;28;20179;-50
2021/10/17 03:56:43;;;;;;;2.35;1.80;;;;;;;;;;5014847;28;20195;-52
2021/10/17 03:59:09;;;;;;;1.90;1.58;;;;;;;;;;5030123;28;20464;-50
2021/10/17 04:01:35;;;;;;;2.10;1.90;;;;;;;;;;5015749;28;20238;-51
2021/10/17 04:04:01;;;;;;;1.88;1.63;;;;;;;;;;5013928;28;20181;-50
2021/10/17 04:06:26;;;;;;;2.05;1.63;;;;;;;;;;5030784;28;20194;-50
2021/10/17 04:08:52;;;;;;;2.00;1.80;;;;;;;;;;5034095;28;20761;-50
2021/10/17 04:11:19;;;;;;;2.17;1.95;;;;;;;;;;5030973;28;20697;-51
2021/10/17 04:13:45;;;;;;;1.73;1.60;;;;;;;;;;5032251;28;20208;-51
2021/10/17 04:16:11;;;;;;;1.58;1.42;;;;;;;;;;5020606;28;20188;-48
2021/10/17 04:18:37;;;;;;;1.77;1.67;;;;;;;;;;5014500;28;20415;-48
2021/10/17 04:21:03;;;;;;;2.22;1.88;;;;;;;;;;5025324;28;20250;-47
2021/10/17 04:23:29;;;;;;;2.47;1.80;;;;;;;;;;5028773;28;20195;-48
2021/10/17 04:25:55;;;;;;;1.95;1.75;;;;;;;;;;5033697;28;20186;-48
2021/10/17 04:28:21;;;;;;;2.22;1.77;;;;;;;;;;5033985;28;20179;-50
2021/10/17 04:30:47;;;;;;;1.77;1.50;;;;;;;;;;5021129;28;20263;-48
2021/10/17 04:33:13;;;;;;;1.95;1.60;;;;;;;;;;5028098;28;20180;-48
2021/10/17 04:35:40;;;;;;;1.65;1.55;;;;;;;;;;5032413;28;20199;-49
2021/10/17 04:38:06;;;;;;;1.98;1.73;;;;;;;;;;5033398;28;20241;-49
2021/10/17 04:40:32;;;;;;;2.00;1.55;;;;;;;;;;5021772;28;20204;-49
2021/10/17 04:42:59;;;;;;;1.67;1.58;;;;;;;;;;5032107;28;20271;-49
2021/10/17 04:45:25;;;;;;;1.60;1.50;;;;;;;;;;5015355;28;20177;-48
2021/10/17 04:47:51;;;;;;;1.55;1.45;;;;;;;;;;5014774;28;20540;-48
2021/10/17 04:50:17;;;;;;;1.48;1.38;;;;;;;;;;5022419;28;20195;-48
2021/10/17 04:52:43;;;;;;;1.50;1.40;;;;;;;;;;5023883;28;20196;-49
2021/10/17 04:55:09;;;;;;;2.00;1.80;;;;;;;;;;5021558;28;20208;-50
2021/10/17 04:57:36;;;;;;;1.40;1.30;;;;;;;;;;5025144;28;20552;-48
2021/10/17 05:00:05;;;;;;;1.75;1.63;;;;;;;;;;5035349;28;20237;-52
2021/10/17 05:02:31;;;;;;;4.45;1.80;;;;;;;;;;5023411;28;20206;-48
2021/10/17 05:04:57;;;;;;;3.20;1.40;;;;;;;;;;5034775;28;20184;-48
2021/10/17 05:07:23;;;;;;;1.88;1.48;;;;;;;;;;5036229;28;20321;-49
2021/10/17 05:09:49;;;;;;;1.85;1.70;;;;;;;;;;5029075;28;20596;-49
2021/10/17 05:12:15;;;;;;;1.73;1.60;;;;;;;;;;5034908;28;20314;-49
2021/10/17 05:14:41;;;;;;;2.60;1.58;;;;;;;;;;5032963;28;20467;-49
2021/10/17 05:17:07;;;;;;;4.07;1.80;;;;;;;;;;5023732;28;20191;-50
2021/10/17 05:19:33;;;;;;;3.55;1.40;;;;;;;;;;5017065;28;20196;-49
2021/10/17 05:21:59;;;;;;;1.80;1.50;;;;;;;;;;5034177;28;20510;-49
2021/10/17 05:24:25;;;;;;;2.80;1.83;;;;;;;;;;5036168;28;20198;-48
2021/10/17 05:26:51;;;;;;;1.80;1.58;;;;;;;;;;5021332;28;20176;-49
2021/10/17 05:29:17;;;;;;;1.50;1.40;;;;;;;;;;5019516;28;20211;-49
2021/10/17 05:31:43;;;;;;;2.05;1.60;;;;;;;;;;5029230;28;20275;-49
2021/10/17 05:34:09;;;;;;;1.73;1.48;;;;;;;;;;5035384;28;20186;-50
2021/10/17 05:36:35;;;;;;;1.67;1.30;;;;;;;;;;5036234;28;20255;-49
2021/10/17 05:39:02;;;;;;;1.45;1.35;;;;;;;;;;5020382;28;20444;-48
2021/10/17 05:41:27;;;;;;;1.63;1.50;;;;;;;;;;5023546;28;20235;-48
2021/10/17 05:43:53;;;;;;;1.55;1.42;;;;;;;;;;5034913;28;20551;-49
2021/10/17 05:46:20;;;;;;;1.60;1.50;;;;;;;;;;5031988;28;20267;-48
2021/10/17 05:48:45;;;;;;;5.40;1.55;;;;;;;;;;5019482;28;20191;-48
2021/10/17 05:51:11;;;;;;;3.72;2.03;;;;;;;;;;5022772;28;20177;-48
2021/10/17 05:53:37;;;;;;;6.03;2.25;;;;;;;;;;5035751;28;20182;-49
2021/10/17 05:56:03;;;;;;;6.43;2.22;;;;;;;;;;5025536;28;20266;-49
2021/10/17 05:58:29;;;;;;;4.15;2.30;;;;;;;;;;5020784;28;20206;-49
2021/10/17 06:00:55;;;;;;;3.08;1.83;;;;;;;;;;5024801;28;20211;-49
2021/10/17 06:03:23;;;;;;;4.90;1.90;;;;;;;;;;5033475;28;20221;-50
2021/10/17 06:05:49;;;;;;;2.70;1.75;;;;;;;;;;5025342;28;20257;-48
2021/10/17 06:08:18;;;;;;;4.32;1.88;;;;;;;;;;5016195;28;20595;-48
2021/10/17 06:10:44;;;;;;;7.05;2.08;;;;;;;;;;5016688;28;20184;-49
2021/10/17 06:13:10;;;;;;;9.60;2.03;;;;;;;;;;5015690;28;20268;-49
2021/10/17 06:15:36;;;;;;;3.10;2.05;;;;;;;;;;5016248;28;20207;-49
2021/10/17 06:18:02;;;;;;;6.25;2.00;;;;;;;;;;5015683;28;20248;-48
2021/10/17 06:20:28;;;;;;;3.20;1.80;;;;;;;;;;5016190;28;20204;-48
2021/10/17 06:22:56;;;;;;;3.63;1.70;;;;;;;;;;5015455;28;20169;-49
2021/10/17 06:25:22;;;;;;;6.32;1.98;;;;;;;;;;5025295;28;20172;-48
2021/10/17 06:27:48;;;;;;;3.63;1.70;;;;;;;;;;5034714;28;20205;-49
2021/10/17 06:30:14;;;;;;;3.13;1.70;;;;;;;;;;5026461;28;20187;-50
2021/10/17 06:32:40;;;;;;;5.28;1.70;;;;;;;;;;5027754;28;20203;-50
2021/10/17 06:35:06;;;;;;;2.13;1.67;;;;;;;;;;5031591;28;20597;-49
2021/10/17 06:37:32;;;;;;;3.35;1.92;;;;;;;;;;5016814;28;20176;-48
2021/10/17 06:39:58;;;;;;;3.85;1.70;;;;;;;;;;5015637;28;20208;-48
2021/10/17 06:42:24;;;;;;;9.07;2.35;;;;;;;;;;5015435;28;20303;-48
2021/10/17 06:44:50;;;;;;;8.10;2.30;;;;;;;;;;5029352;28;20172;-48
2021/10/17 06:47:16;;;;;;;5.15;2.20;;;;;;;;;;5027891;28;20184;-48
2021/10/17 06:49:42;;;;;;;5.25;2.15;;;;;;;;;;5015518;28;20201;-48
2021/10/17 06:52:08;;;;;;;5.53;2.40;;;;;;;;;;5017407;28;20196;-49
2021/10/17 06:54:34;;;;;;;7.53;2.33;;;;;;;;;;5023664;28;20176;-48
2021/10/17 06:57:00;;;;;;;5.63;2.25;;;;;;;;;;5028945;28;20250;-48
2021/10/17 06:59:26;;;;;;;6.63;2.47;;;;;;;;;;5015239;28;20192;-48
2021/10/17 07:01:52;;;;;;;6.95;2.35;;;;;;;;;;5016537;28;20211;-49
2021/10/17 07:04:19;;;;;;;6.68;2.40;;;;;;;;;;5014951;28;20184;-48
2021/10/17 07:06:45;;;;;;;7.20;2.63;;;;;;;;;;5015030;28;20180;-48
2021/10/17 07:09:11;;;;;;;4.60;2.50;;;;;;;;;;5028968;28;20172;-48
2021/10/17 07:11:37;;;;;;;4.97;2.47;;;;;;;;;;5032450;28;20182;-49
2021/10/17 07:14:03;;;;;;;5.00;2.38;;;;;;;;;;5054310;28;20167;-49
2021/10/17 07:16:30;;;;;;;5.43;2.50;;;;;;;;;;5036957;28;20259;-48
2021/10/17 07:18:56;;;;;;;5.55;2.75;;;;;;;;;;5024204;28;20172;-48
2021/10/17 07:21:22;;;;;;;6.70;2.33;;;;;;;;;;5017345;28;20208;-48
2021/10/17 07:23:47;;;;;;;3.90;2.30;;;;;;;;;;5014451;28;20172;-48
2021/10/17 07:26:14;;;;;;;5.32;2.55;;;;;;;;;;5014773;28;20219;-48
2021/10/17 07:28:40;;;;;;;4.68;2.20;;;;;;;;;;5015011;28;20181;-48
2021/10/17 07:31:06;;;;;;;5.38;2.42;;;;;;;;;;5026420;28;20210;-48
2021/10/17 07:33:32;;;;;;;8.63;2.78;;;;;;;;;;5029959;28;20191;-45
2021/10/17 07:35:58;;;;;;;5.10;2.35;;;;;;;;;;5034359;28;20187;-44
2021/10/17 07:38:24;;;;;;;5.43;2.47;;;;;;;;;;5034892;28;20175;-43
2021/10/17 07:40:50;;;;;;;3.55;2.50;;;;;;;;;;5027158;28;20207;-40
2021/10/17 07:43:16;;;;;;;4.47;2.30;;;;;;;;;;5029720;28;20192;-42
2021/10/17 07:45:42;;;;;;;6.50;2.92;;;;;;;;;;5015314;28;20450;-46
2021/10/17 07:48:12;;;;;;;9.55;2.58;;;;;;;;;;5015364;28;20182;-47
2021/10/17 07:50:38;;;;;;;4.65;2.30;;;;;;;;;;5019662;28;20184;-46
2021/10/17 07:53:04;;;;;;;5.63;2.20;;;;;;;;;;5016831;28;20233;-46
2021/10/17 07:55:30;;;;;;;6.38;2.38;;;;;;;;;;5015917;28;20188;-45
2021/10/17 07:57:58;;;;;;;6.35;2.15;;;;;;;;;;5023285;28;20205;-45
2021/10/17 08:00:25;;;;;;;6.95;2.20;;;;;;;;;;5021373;28;20824;-44
2021/10/17 08:02:51;;;;;;;5.40;2.10;;;;;;;;;;5023123;28;20668;-46
2021/10/17 08:05:17;;;;;;;6.00;2.05;;;;;;;;;;5016179;28;20191;-45
2021/10/17 08:07:43;;;;;;;5.78;2.03;;;;;;;;;;5014505;28;20171;-46
2021/10/17 08:10:10;;;;;;;5.75;2.05;;;;;;;;;;5018406;28;20182;-47
2021/10/17 08:12:36;;;;;;;5.55;2.47;;;;;;;;;;5033971;28;20195;-48
2021/10/17 08:15:02;;;;;;;4.60;2.20;;;;;;;;;;5031382;28;20512;-47
2021/10/17 08:17:28;;;;;;;5.78;2.33;;;;;;;;;;5025545;28;20197;-47
2021/10/17 08:19:54;;;;;;;5.13;2.03;;;;;;;;;;5014351;28;20295;-44
2021/10/17 08:22:20;;;;;;;3.17;2.10;;;;;;;;;;5026904;28;20180;-47
2021/10/17 08:24:46;;;;;;;3.95;2.05;;;;;;;;;;5020114;28;20181;-46
2021/10/17 08:27:12;;;;;;;6.93;2.20;;;;;;;;;;5017915;28;20187;-43
2021/10/17 08:29:39;;;;;;;5.72;2.20;;;;;;;;;;5020983;28;20184;-44
2021/10/17 08:32:05;;;;;;;4.20;2.22;;;;;;;;;;5027134;28;20458;-44
2021/10/17 08:34:31;;;;;;;4.03;2.17;;;;;;;;;;5017388;28;20540;-44
2021/10/17 08:36:57;;;;;;;2.88;2.10;;;;;;;;;;5035795;28;20222;-44
2021/10/17 08:39:23;;;;;;;5.50;2.53;;;;;;;;;;5033257;28;20203;-45
2021/10/17 08:41:49;;;;;;;9.15;2.40;;;;;;;;;;5025169;28;20500;-45
2021/10/17 08:44:15;;;;;;;7.78;2.63;;;;;;;;;;5035566;28;20172;-45
2021/10/17 08:46:43;;;;;;;5.40;2.30;;;;;;;;;;5036792;28;20188;-45
2021/10/17 08:49:10;;;;;;;4.38;2.42;;;;;;;;;;5028686;28;20543;-45
2021/10/17 08:51:36;;;;;;;4.38;2.28;;;;;;;;;;5033372;28;20250;-45
2021/10/17 08:54:03;;;;;;;3.33;2.08;;;;;;;;;;5020771;28;20180;-44
2021/10/17 08:56:29;;;;;;;8.77;2.47;;;;;;;;;;5022483;28;20181;-44
2021/10/17 08:58:55;;;;;;;2.65;2.20;;;;;;;;;;5028023;28;20263;-44
2021/10/17 09:01:21;;;;;;;7.03;2.70;;;;;;;;;;5021289;28;20295;-45
2021/10/17 09:03:54;;;;;;;3.08;2.22;;;;;;;;;;5036003;28;20180;-46
2021/10/17 09:06:22;;;;;;;4.70;2.40;;;;;;;;;;5036733;28;20176;-45
2021/10/17 09:08:50;;;;;;;4.60;2.35;;;;;;;;;;5037158;28;20167;-47
2021/10/17 09:11:34;;;;;;;3.17;2.28;;;;;;;;;;5018878;28;20187;-47
2021/10/17 09:14:07;;;;;;;3.85;2.60;;;;;;;;;;5017335;28;20429;-47
2021/10/17 09:16:35;;;;;;;8.13;2.40;;;;;;;;;;5018074;28;20203;-47
2021/10/17 09:19:05;;;;;;;3.33;2.22;;;;;;;;;;5018491;28;20470;-47
2021/10/17 09:21:31;;;;;;;5.80;2.50;;;;;;;;;;5022110;28;20204;-47
2021/10/17 09:23:58;;;;;;;3.58;2.40;;;;;;;;;;5016833;28;20183;-47
2021/10/17 09:26:24;;;;;;;3.45;2.20;;;;;;;;;;5030419;28;20186;-47
2021/10/17 09:28:52;;;;;;;4.63;2.83;;;;;;;;;;5035984;28;20233;-47
2021/10/17 09:31:19;;;;;;;4.72;2.30;;;;;;;;;;5024585;28;20566;-47
2021/10/17 09:33:48;;;;;;;3.35;2.50;;;;;;;;;;5024703;28;20173;-47
2021/10/17 09:36:18;;;;;;;6.50;2.65;;;;;;;;;;5030360;28;20512;-47
2021/10/17 09:38:46;;;;;;;4.53;2.35;;;;;;;;;;5034845;28;20184;-47
2021/10/17 09:41:20;;;;;;;6.07;2.75;;;;;;;;;;5026070;28;20704;-47
2021/10/17 09:43:57;;;;;;;4.65;2.30;;;;;;;;;;5016419;28;20274;-47
2021/10/17 09:46:23;;;;;;;5.75;2.40;;;;;;;;;;5029342;28;20317;-47
2021/10/17 09:48:50;;;;;;;3.65;2.30;;;;;;;;;;5036401;28;20494;-48
2021/10/17 09:51:23;;;;;;;3.95;2.22;;;;;;;;;;5032608;28;20180;-48
2021/10/17 09:53:50;;;;;;;3.13;2.05;;;;;;;;;;5024457;28;20200;-48
2021/10/17 09:56:36;;;;;;;3.47;2.30;;;;;;;;;;5023438;28;20183;-48
2021/10/17 09:59:02;;;;;;;4.20;2.40;;;;;;;;;;5016359;28;20255;-48
2021/10/17 10:01:29;;;;;;;2.95;2.22;;;;;;;;;;5020813;28;20208;-48
2021/10/17 10:03:56;;;;;;;2.30;2.10;;;;;;;;;;5016286;28;20525;-48
2021/10/17 10:06:23;;;;;;;5.15;2.80;;;;;;;;;;5016118;28;20197;-47
2021/10/17 10:08:50;;;;;;;2.95;2.10;;;;;;;;;;5017577;28;20169;-47
2021/10/17 10:11:20;;;;;;;2.78;2.22;;;;;;;;;;5032537;28;20570;-47
2021/10/17 10:13:47;;;;;;;3.50;2.40;;;;;;;;;;5026166;28;20285;-47
2021/10/17 10:16:13;;;;;;;3.22;2.00;;;;;;;;;;5016841;28;20219;-47
2021/10/17 10:18:40;;;;;;;6.20;2.22;;;;;;;;;;5035951;28;20219;-47
2021/10/17 10:21:06;;;;;;;3.38;2.10;;;;;;;;;;5020541;28;20208;-47
2021/10/17 10:23:33;;;;;;;3.92;2.47;;;;;;;;;;5015587;28;20183;-47
2021/10/17 10:25:59;;;;;;;2.60;1.90;;;;;;;;;;5017305;28;20212;-47
2021/10/17 10:28:26;;;;;;;2.75;2.20;;;;;;;;;;5026570;28;20176;-47
2021/10/17 10:30:52;;;;;;;2.75;2.40;;;;;;;;;;5022952;28;20191;-46
2021/10/17 10:33:22;;;;;;;3.38;2.15;;;;;;;;;;5035160;28;20239;-46
2021/10/17 10:36:01;;;;;;;3.60;2.28;;;;;;;;;;5026525;28;20191;-46
2021/10/17 10:38:45;;;;;;;1.95;1.83;;;;;;;;;;5015606;28;20184;-46
2021/10/17 10:41:18;;;;;;;3.25;2.20;;;;;;;;;;5030445;28;20211;-46
2021/10/17 10:43:44;;;;;;;3.33;2.25;;;;;;;;;;5033385;28;20579;-45
2021/10/17 10:46:10;;;;;;;2.10;1.80;;;;;;;;;;5034576;28;20202;-45
2021/10/17 10:48:46;;;;;;;3.88;2.00;;;;;;;;;;5024253;28;20183;-47
2021/10/17 10:51:32;;;;;;;3.88;2.20;;;;;;;;;;5030192;28;20543;-45
2021/10/17 10:53:58;;;;;;;3.63;2.25;;;;;;;;;;5031680;28;20522;-45
2021/10/17 10:56:41;;;;;;;2.40;2.00;;;;;;;;;;5028165;28;20191;-45
2021/10/17 10:59:07;;;;;;;2.70;2.10;;;;;;;;;;5032722;28;20179;-45
2021/10/17 11:01:53;;;;;;;2.40;2.20;;;;;;;;;;5028967;28;20211;-48
2021/10/17 11:04:45;;;;;;;2.90;1.92;;;;;;;;;;5010651;28;20193;-46
2021/10/17 11:07:23;;;;;;;3.33;2.47;;;;;;;;;;5016514;28;20733;-46
2021/10/17 11:09:50;;;;;;;2.30;2.10;;;;;;;;;;5017700;28;20207;-46
2021/10/17 11:12:34;;;;;;;2.45;2.20;;;;;;;;;;5034176;28;20618;-46
2021/10/17 11:15:01;;;;;;;2.10;1.90;;;;;;;;;;5033992;28;20176;-46
2021/10/17 11:17:29;;;;;;;3.38;2.20;;;;;;;;;;5029660;28;20215;-46
2021/10/17 11:19:55;;;;;;;2.72;1.95;;;;;;;;;;5016187;28;20258;-46
2021/10/17 11:22:21;;;;;;;2.42;2.00;;;;;;;;;;5014924;28;20168;-46
2021/10/17 11:24:51;;;;;;;2.70;1.98;;;;;;;;;;5014198;28;20168;-46
2021/10/17 11:27:17;;;;;;;2.03;1.83;;;;;;;;;;5014912;28;20211;-46
2021/10/17 11:29:45;;;;;;;2.63;2.00;;;;;;;;;;5018711;28;20207;-46
2021/10/17 11:32:16;;;;;;;3.97;2.13;;;;;;;;;;5041990;28;20176;-46
2021/10/17 11:34:43;;;;;;;3.85;1.80;;;;;;;;;;5031222;28;20215;-46
2021/10/17 11:37:22;;;;;;;3.78;2.05;;;;;;;;;;5034529;28;20175;-46
2021/10/17 11:39:55;;;;;;;3.42;2.15;;;;;;;;;;5032933;28;20564;-46
2021/10/17 11:42:21;;;;;;;3.38;1.90;;;;;;;;;;5018955;28;20587;-46
2021/10/17 11:44:47;;;;;;;10.75;2.72;;;;;;;;;;5014163;28;20169;-46
2021/10/17 11:47:15;;;;;;;6.80;3.42;;;;;;;;;;5026927;28;20446;-46
2021/10/17 11:49:41;;;;;;;10.85;4.85;;;;;;;;;;5032284;28;20458;-46
2021/10/17 11:52:11;;;;;;;11.32;4.78;;;;;;;;;;5014761;28;20172;-46
2021/10/17 11:54:46;;;;;;;12.30;6.20;;;;;;;;;;5022367;28;20263;-46
2021/10/17 11:57:28;;;;;;;11.07;4.72;;;;;;;;;;5014729;28;20172;-46
2021/10/17 12:00:01;;;;;;;9.82;4.88;;;;;;;;;;5034578;28;20204;-46
2021/10/17 12:02:37;;;;;;;8.07;4.35;;;;;;;;;;5027853;28;20184;-46
2021/10/17 12:05:07;;;;;;;10.90;3.78;;;;;;;;;;5028314;28;20181;-46
2021/10/17 12:07:33;;;;;;;6.05;3.38;;;;;;;;;;5022471;28;20172;-46
2021/10/17 12:09:59;;;;;;;5.38;3.60;;;;;;;;;;5034645;28;20462;-46
2021/10/17 12:12:26;;;;;;;7.20;3.53;;;;;;;;;;5018210;28;20168;-46
2021/10/17 12:15:04;;;;;;;5.88;3.10;;;;;;;;;;5017761;28;20219;-46
2021/10/17 12:17:31;;;;;;;5.53;3.00;;;;;;;;;;5018596;28;21038;-46
2021/10/17 12:20:03;;;;;;;5.30;2.70;;;;;;;;;;5021215;28;20654;-46
2021/10/17 12:22:29;;;;;;;7.25;3.38;;;;;;;;;;5025430;28;20177;-46
2021/10/17 12:24:59;;;;;;;4.85;2.53;;;;;;;;;;5024501;28;20160;-46
2021/10/17 12:27:36;;;;;;;4.93;3.10;;;;;;;;;;5018222;28;20525;-45
2021/10/17 12:30:19;;;;;;;5.95;2.75;;;;;;;;;;5023266;28;20183;-45
2021/10/17 12:32:45;;;;;;;4.70;2.50;;;;;;;;;;5022878;28;20551;-45
2021/10/17 12:35:32;;;;;;;5.07;2.60;;;;;;;;;;5017449;28;20250;-46
2021/10/17 12:38:05;;;;;;;5.30;2.58;;;;;;;;;;5034449;28;20190;-46
2021/10/17 12:40:32;;;;;;;5.35;2.58;;;;;;;;;;5029375;28;20471;-46
2021/10/17 12:43:04;;;;;;;4.85;2.45;;;;;;;;;;5031193;28;20212;-46
2021/10/17 12:45:32;;;;;;;5.63;2.50;;;;;;;;;;5029683;28;20177;-45
2021/10/17 12:47:59;;;;;;;6.55;2.92;;;;;;;;;;5036149;28;20185;-45
2021/10/17 12:50:25;;;;;;;7.28;2.67;;;;;;;;;;5031017;28;20176;-45
2021/10/17 12:52:56;;;;;;;4.00;2.10;;;;;;;;;;5032225;28;20562;-45
2021/10/17 12:55:22;;;;;;;3.97;2.60;;;;;;;;;;5025390;28;20186;-46
2021/10/17 12:58:04;;;;;;;4.43;2.45;;;;;;;;;;5036712;28;20191;-46
2021/10/17 13:00:30;;;;;;;5.60;2.90;;;;;;;;;;5030309;28;20500;-46
2021/10/17 13:03:16;;;;;;;16.77;5.95;;;;;;;;;;5017153;28;20235;-46
2021/10/17 13:05:58;;;;;;;23.95;9.13;;;;;;;;;;5017564;28;20184;-46
2021/10/17 13:08:26;;;;;;;21.45;8.68;;;;;;;;;;5025321;28;20180;-46
2021/10/17 13:10:52;;;;;;;23.58;8.00;;;;;;;;;;5023180;28;20255;-46
2021/10/17 13:13:23;;;;;;;17.67;7.40;;;;;;;;;;5036615;28;20179;-46
2021/10/17 13:15:54;;;;;;;23.33;8.27;;;;;;;;;;5020866;28;20256;-46
2021/10/17 13:18:21;;;;;;;21.90;7.93;;;;;;;;;;5028711;28;20184;-46
2021/10/17 13:20:47;;;;;;;25.10;7.43;;;;;;;;;;5024156;28;20694;-46
2021/10/17 13:23:20;;;;;;;17.77;7.32;;;;;;;;;;5020986;28;20571;-46
2021/10/17 13:25:47;;;;;;;22.90;7.43;;;;;;;;;;5029421;28;20164;-45
2021/10/17 13:28:13;;;;;;;18.80;7.05;;;;;;;;;;5021295;28;20210;-46
2021/10/17 13:30:39;;;;;;;19.05;6.78;;;;;;;;;;5026928;28;20249;-46
2021/10/17 13:33:06;;;;;;;13.80;6.13;;;;;;;;;;5034048;28;20282;-46
2021/10/17 13:35:33;;;;;;;20.67;7.25;;;;;;;;;;5036310;28;20254;-46
2021/10/17 13:37:59;;;;;;;18.13;6.47;;;;;;;;;;5026013;28;20188;-45
2021/10/17 13:40:25;;;;;;;17.70;6.40;;;;;;;;;;5021025;28;20235;-46
2021/10/17 13:42:55;;;;;;;18.90;5.82;;;;;;;;;;5034762;28;20372;-46
2021/10/17 13:45:22;;;;;;;20.05;6.57;;;;;;;;;;5019182;28;20168;-46
2021/10/17 13:47:48;;;;;;;13.88;5.53;;;;;;;;;;5024860;28;20458;-46
2021/10/17 13:50:14;;;;;;;15.77;5.45;;;;;;;;;;5030072;28;20203;-46
2021/10/17 13:52:40;;;;;;;15.27;5.15;;;;;;;;;;5034522;28;20178;-46
2021/10/17 13:55:06;;;;;;;15.52;5.07;;;;;;;;;;5031580;28;20589;-46
2021/10/17 13:57:33;;;;;;;17.27;5.28;;;;;;;;;;5030458;28;20211;-46
2021/10/17 14:00:00;;;;;;;9.32;4.90;;;;;;;;;;5017146;28;20236;-46
2021/10/17 14:02:26;;;;;;;13.65;4.80;;;;;;;;;;5029660;28;20200;-46
2021/10/17 14:04:52;;;;;;;10.32;4.50;;;;;;;;;;5015611;28;20196;-45
2021/10/17 14:07:18;;;;;;;12.70;4.47;;;;;;;;;;5024705;28;20773;-46
2021/10/17 14:09:46;;;;;;;14.38;4.60;;;;;;;;;;5016155;28;20176;-46
2021/10/17 14:12:12;;;;;;;10.55;4.53;;;;;;;;;;5035736;28;20172;-46
2021/10/17 14:14:38;;;;;;;10.55;4.25;;;;;;;;;;5035131;28;20183;-46
2021/10/17 14:17:04;;;;;;;8.95;4.30;;;;;;;;;;5033759;28;20241;-46
2021/10/17 14:19:32;;;;;;;10.40;4.07;;;;;;;;;;5037989;28;20473;-46
2021/10/17 14:21:58;;;;;;;15.48;4.50;;;;;;;;;;5035289;28;20172;-46
2021/10/17 14:24:24;;;;;;;14.52;4.15;;;;;;;;;;5031845;28;20176;-45
2021/10/17 14:26:50;;;;;;;11.13;3.85;;;;;;;;;;5015864;28;20181;-46
2021/10/17 14:29:16;;;;;;;7.97;3.80;;;;;;;;;;5032720;28;20272;-46
2021/10/17 14:31:43;;;;;;;7.63;3.47;;;;;;;;;;5024337;28;20182;-46
2021/10/17 14:34:09;;;;;;;13.35;4.00;;;;;;;;;;5045271;28;20194;-46
2021/10/17 14:36:35;;;;;;;8.73;3.70;;;;;;;;;;5037301;28;20190;-46
2021/10/17 14:39:02;;;;;;;8.65;3.40;;;;;;;;;;5019411;28;20184;-46
2021/10/17 14:41:28;;;;;;;8.00;3.63;;;;;;;;;;5029758;28;20222;-47